Time;durP1;ratioP1;P1;durP2;ratioP2;P2;SDS_P1;SDS_P2;PMS_P1;PMS_P2;Temp;Humidity;BMP_temperature;BMP_pressure;BME280_temperature;BME280_humidity;BME280_pressure;Samples;Min_cycle;Max_cycle;Signal;HPM_P1;HPM_P2
2022/11/29 00:00:47;;;;;;;21.20;15.60;;;;;;;6.65;100.00;97786.06;5114118;28;20219;-72
2022/11/29 00:03:14;;;;;;;22.43;14.93;;;;;;;6.66;100.00;97786.91;5113891;28;20681;-72
2022/11/29 00:05:40;;;;;;;18.80;15.77;;;;;;;6.67;100.00;97781.41;5114223;28;20207;-72
2022/11/29 00:08:07;;;;;;;18.27;15.10;;;;;;;6.67;100.00;97788.50;5114375;28;20233;-72
2022/11/29 00:10:36;;;;;;;16.73;14.30;;;;;;;6.65;100.00;97782.63;5113938;28;20223;-72
2022/11/29 00:13:03;;;;;;;20.60;14.97;;;;;;;6.64;100.00;97786.25;5114001;28;20219;-72
2022/11/29 00:15:29;;;;;;;18.47;14.73;;;;;;;6.70;100.00;97786.28;5114267;28;20203;-72
2022/11/29 00:17:56;;;;;;;19.00;15.03;;;;;;;6.65;100.00;97786.06;5113932;28;20207;-72
2022/11/29 00:20:22;;;;;;;21.13;15.17;;;;;;;6.70;100.00;97785.47;5114177;28;20293;-72
2022/11/29 00:22:48;;;;;;;19.97;14.53;;;;;;;6.70;100.00;97785.47;5113951;28;20207;-72
2022/11/29 00:25:15;;;;;;;17.00;14.23;;;;;;;6.69;100.00;97784.66;5114191;28;20205;-72
2022/11/29 00:27:41;;;;;;;17.70;15.27;;;;;;;6.69;100.00;97784.66;5114074;28;20213;-72
2022/11/29 00:30:08;;;;;;;17.27;14.07;;;;;;;6.69;100.00;97782.00;5113719;28;20669;-72
2022/11/29 00:32:35;;;;;;;17.60;14.13;;;;;;;6.71;100.00;97781.81;5113977;28;20318;-72
2022/11/29 00:35:02;;;;;;;18.33;15.07;;;;;;;6.70;100.00;97788.13;5114071;28;20209;-72
2022/11/29 00:37:28;;;;;;;19.33;15.30;;;;;;;6.72;100.00;97784.25;5114005;28;20209;-72
2022/11/29 00:39:54;;;;;;;23.27;15.87;;;;;;;6.70;100.00;97777.56;5113988;28;20203;-72
2022/11/29 00:42:21;;;;;;;17.93;14.70;;;;;;;6.69;100.00;97783.88;5113929;28;20222;-72
2022/11/29 00:44:47;;;;;;;26.70;16.20;;;;;;;6.68;100.00;97780.41;5113626;28;20577;-72
2022/11/29 00:47:13;;;;;;;20.50;14.50;;;;;;;6.72;100.00;97778.16;5113898;28;20199;-72
2022/11/29 00:49:40;;;;;;;18.20;14.30;;;;;;;6.75;100.00;97778.56;5113904;28;20218;-72
2022/11/29 00:52:07;;;;;;;18.50;15.23;;;;;;;6.78;100.00;97790.59;5113753;28;20230;-72
2022/11/29 00:54:33;;;;;;;21.33;15.27;;;;;;;6.76;100.00;97787.31;5113913;28;20263;-72
2022/11/29 00:57:00;;;;;;;20.57;16.63;;;;;;;6.76;100.00;97788.13;5115935;28;20202;-72
2022/11/29 00:59:26;;;;;;;18.97;15.80;;;;;;;6.78;100.00;97782.66;5118058;28;20199;-72
2022/11/29 01:01:52;;;;;;;19.03;15.37;;;;;;;6.79;100.00;97789.56;5117898;28;20225;-72
2022/11/29 01:04:19;;;;;;;18.13;15.50;;;;;;;6.77;100.00;97784.47;5117902;28;20213;-72
2022/11/29 01:06:45;;;;;;;20.43;14.80;;;;;;;6.81;100.00;97787.50;5117891;28;20199;-72
2022/11/29 01:09:12;;;;;;;22.87;15.90;;;;;;;6.79;100.00;97789.56;5117756;28;20203;-72
2022/11/29 01:11:38;;;;;;;18.40;14.30;;;;;;;6.78;100.00;97787.94;5117305;28;20236;-72
2022/11/29 01:14:04;;;;;;;18.00;15.00;;;;;;;6.79;100.00;97787.72;5117428;28;20685;-72
2022/11/29 01:16:31;;;;;;;20.73;14.37;;;;;;;6.78;100.00;97790.59;5117340;28;20373;-72
2022/11/29 01:18:58;;;;;;;16.87;14.00;;;;;;;6.78;100.00;97790.59;5117719;28;20206;-72
2022/11/29 01:21:24;;;;;;;18.33;14.57;;;;;;;6.79;100.00;97792.19;5117542;28;20219;-72
2022/11/29 01:23:53;;;;;;;18.07;14.63;;;;;;;6.79;100.00;97794.84;5117264;28;20218;-73
2022/11/29 01:26:22;;;;;;;16.43;13.73;;;;;;;6.77;100.00;97794.22;5117453;28;20217;-72
2022/11/29 01:28:50;;;;;;;19.93;14.47;;;;;;;6.77;100.00;97788.94;5117468;28;20211;-72
2022/11/29 01:31:27;;;;;;;16.53;13.37;;;;;;;6.79;100.00;97795.63;5117048;28;20591;-72
2022/11/29 01:33:58;;;;;;;16.40;13.37;;;;;;;6.77;100.00;97797.69;5117090;28;20203;-72
2022/11/29 01:36:25;;;;;;;16.47;13.83;;;;;;;6.76;100.00;97801.34;5117337;28;20206;-72
2022/11/29 01:38:52;;;;;;;21.33;15.43;;;;;;;6.74;100.00;97795.44;5117279;28;20213;-72
2022/11/29 01:41:30;;;;;;;17.53;14.37;;;;;;;6.76;100.00;97792.59;5116881;28;20236;-72
2022/11/29 01:44:26;;;;;;;19.60;14.17;;;;;;;6.78;100.00;97795.88;5117194;27;20191;-72
2022/11/29 01:46:54;;;;;;;16.50;13.80;;;;;;;6.82;100.00;97802.34;5116792;28;20203;-72
2022/11/29 01:49:37;;;;;;;16.70;13.77;;;;;;;6.84;100.00;97793.19;5117087;28;20260;-72
2022/11/29 01:52:06;;;;;;;15.17;13.57;;;;;;;6.85;100.00;97788.75;5116895;28;20231;-72
2022/11/29 01:54:37;;;;;;;15.30;13.23;;;;;;;6.86;100.00;97796.47;5116965;27;20206;-72
2022/11/29 01:57:07;;;;;;;16.53;13.37;;;;;;;6.86;100.00;97785.91;5116968;28;20191;-72
2022/11/29 01:59:36;;;;;;;17.67;14.10;;;;;;;6.87;100.00;97797.28;5116893;28;20229;-72
2022/11/29 02:02:12;;;;;;;16.93;12.93;;;;;;;6.87;100.00;97792.81;5116728;28;20230;-72
2022/11/29 02:04:41;;;;;;;15.07;13.27;;;;;;;6.89;100.00;97790.78;5116557;28;20187;-72
2022/11/29 02:07:08;;;;;;;14.63;13.13;;;;;;;6.89;100.00;97790.78;5117245;28;20209;-72
2022/11/29 02:09:34;;;;;;;15.03;12.93;;;;;;;6.92;100.00;97789.56;5115829;28;20203;-72
2022/11/29 02:12:37;;;;;;;15.13;13.53;;;;;;;6.92;100.00;97787.72;5116628;27;20231;-72
2022/11/29 02:15:23;;;;;;;13.77;12.30;;;;;;;6.89;100.00;97784.69;5116626;28;20187;-72
2022/11/29 02:18:08;;;;;;;15.17;12.20;;;;;;;6.88;100.00;97789.16;5116296;28;20202;-72
2022/11/29 02:21:00;;;;;;;15.47;12.67;;;;;;;6.90;100.00;97802.16;5116665;28;20246;-72
2022/11/29 02:23:51;;;;;;;16.97;12.87;;;;;;;6.89;100.00;97789.97;5115935;28;20207;-72
2022/11/29 02:26:26;;;;;;;14.67;12.20;;;;;;;6.89;100.00;97792.63;5116389;28;20206;-72
2022/11/29 02:29:14;;;;;;;14.00;11.93;;;;;;;6.92;100.00;97794.88;5116322;28;20191;-72
2022/11/29 02:31:56;;;;;;;13.27;11.87;;;;;;;6.94;100.00;97791.00;5115799;28;20720;-72
2022/11/29 02:34:44;;;;;;;15.73;12.43;;;;;;;6.94;100.00;97787.53;5115154;28;20214;-72
2022/11/29 02:37:48;;;;;;;15.43;12.10;;;;;;;6.94;100.00;97795.47;5116100;28;20198;-72
2022/11/29 02:40:31;;;;;;;16.23;13.27;;;;;;;6.90;100.00;97797.69;5115999;28;20222;-73
2022/11/29 02:43:16;;;;;;;13.73;12.23;;;;;;;6.93;100.00;97788.56;5116119;28;20183;-72
2022/11/29 02:45:42;;;;;;;14.50;12.27;;;;;;;6.93;100.00;97797.28;5115713;28;20188;-72
2022/11/29 02:48:17;;;;;;;16.83;13.57;;;;;;;6.94;100.00;97795.47;5115637;28;20681;-72
2022/11/29 02:50:58;;;;;;;13.20;11.00;;;;;;;6.94;100.00;97798.94;5115771;28;20313;-72
2022/11/29 02:53:33;;;;;;;16.03;13.43;;;;;;;6.91;100.00;97798.50;5115792;28;20218;-72
2022/11/29 02:56:26;;;;;;;15.43;12.90;;;;;;;6.94;100.00;97798.94;5114722;28;20213;-72
2022/11/29 02:58:58;;;;;;;14.33;12.40;;;;;;;6.97;100.00;97803.00;5115711;28;20198;-72
2022/11/29 03:01:39;;;;;;;15.93;12.17;;;;;;;6.98;100.00;97804.63;5115376;28;20223;-72
2022/11/29 03:05:00;;;;;;;13.23;11.80;;;;;;;6.95;100.00;97795.25;5115333;28;20180;-72
2022/11/29 03:07:34;;;;;;;14.50;12.23;;;;;;;6.99;100.00;97801.78;5052559;28;20714;-72
2022/11/29 03:10:28;;;;;;;13.67;12.27;;;;;;;6.99;100.00;97804.41;5106079;28;20214;-72
2022/11/29 03:12:56;;;;;;;14.77;12.07;;;;;;;6.98;100.00;97805.44;5115405;27;20218;-72
2022/11/29 03:15:31;;;;;;;13.80;12.40;;;;;;;7.00;100.00;97805.22;5115398;28;20205;-72
2022/11/29 03:18:41;;;;;;;11.47;10.23;;;;;;;7.00;100.00;97807.84;5115415;28;20194;-72
2022/11/29 03:21:36;;;;;;;10.83;9.73;;;;;;;6.99;100.00;97814.16;5115220;28;20234;-72
2022/11/29 03:24:09;;;;;;;12.20;10.87;;;;;;;6.98;100.00;97815.19;5114855;28;20203;-72
2022/11/29 03:26:43;;;;;;;12.73;10.73;;;;;;;6.98;100.00;97815.19;5115217;28;20188;-72
2022/11/29 03:29:32;;;;;;;11.50;10.27;;;;;;;6.99;100.00;97822.09;5115176;28;20200;-72
2022/11/29 03:32:05;;;;;;;13.57;10.00;;;;;;;7.01;100.00;97814.78;5114941;28;20226;-72
2022/11/29 03:34:53;;;;;;;11.50;10.07;;;;;;;7.03;100.00;97821.50;5113568;28;20198;-72
2022/11/29 03:37:25;;;;;;;13.50;10.90;;;;;;;7.02;100.00;97821.69;5114606;28;20286;-72
2022/11/29 03:40:01;;;;;;;11.97;10.30;;;;;;;7.00;100.00;97813.13;5114541;28;20282;-72
2022/11/29 03:42:37;;;;;;;14.23;10.57;;;;;;;6.99;100.00;97812.34;5114808;28;20228;-72
2022/11/29 03:45:22;;;;;;;10.77;9.67;;;;;;;7.00;100.00;97815.78;5114518;27;20657;-72
2022/11/29 03:47:48;;;;;;;10.33;9.33;;;;;;;7.03;100.00;97818.84;5114280;28;20523;-72
2022/11/29 03:50:22;;;;;;;10.10;8.83;;;;;;;7.04;100.00;97822.28;5114636;28;20203;-73
2022/11/29 03:53:07;;;;;;;10.20;9.20;;;;;;;7.03;100.00;97818.84;5113481;28;20207;-72
2022/11/29 03:55:56;;;;;;;9.87;8.77;;;;;;;7.01;100.00;97828.00;5114705;28;20198;-72
2022/11/29 03:58:34;;;;;;;9.33;8.40;;;;;;;7.02;100.00;97827.78;5114584;28;20187;-72
2022/11/29 04:01:55;;;;;;;9.80;8.63;;;;;;;7.06;100.00;97834.28;5114181;28;20702;-72
2022/11/29 04:04:39;;;;;;;8.77;7.97;;;;;;;7.06;100.00;97826.38;5114354;28;20190;-72
2022/11/29 04:07:24;;;;;;;8.90;8.03;;;;;;;7.09;100.00;97827.78;5114401;28;20537;-72
2022/11/29 04:10:23;;;;;;;9.10;8.20;;;;;;;7.07;100.00;97822.72;5114225;28;20225;-72
2022/11/29 04:13:20;;;;;;;9.37;8.07;;;;;;;7.11;100.00;97829.22;5102032;28;20612;-72
2022/11/29 04:16:08;;;;;;;8.57;7.77;;;;;;;7.06;100.00;97834.28;5114178;28;20199;-72
2022/11/29 04:18:56;;;;;;;8.97;8.10;;;;;;;7.08;100.00;97834.09;5114788;28;20190;-72
2022/11/29 04:21:25;;;;;;;8.97;8.07;;;;;;;7.09;100.00;97838.34;5113977;28;20219;-72
2022/11/29 04:24:29;;;;;;;8.87;7.17;;;;;;;7.12;100.00;97837.97;5114236;28;20206;-72
2022/11/29 04:27:29;;;;;;;8.23;7.43;;;;;;;7.11;100.00;97846.91;5113906;28;20203;-72
2022/11/29 04:30:14;;;;;;;8.57;7.57;;;;;;;7.13;100.00;97844.88;5113678;28;20196;-72
2022/11/29 04:32:58;;;;;;;8.20;7.03;;;;;;;7.12;100.00;97849.38;5113541;28;20310;-72
2022/11/29 04:36:06;;;;;;;9.37;7.57;;;;;;;7.11;100.00;97847.72;5113961;28;20209;-72
2022/11/29 04:38:44;;;;;;;8.23;7.43;;;;;;;7.10;100.00;97848.75;5114264;28;20187;-72
2022/11/29 04:41:37;;;;;;;11.50;8.43;;;;;;;7.13;100.00;97850.16;5112323;28;20225;-72
2022/11/29 04:44:37;;;;;;;9.90;7.87;;;;;;;7.09;100.00;97854.22;5112695;28;20199;-72
2022/11/29 04:47:10;;;;;;;8.57;7.70;;;;;;;7.14;100.00;97851.78;5113460;28;20199;-72
2022/11/29 04:49:39;;;;;;;9.33;7.73;;;;;;;7.10;100.00;97853.22;5113743;28;20355;-72
2022/11/29 04:52:32;;;;;;;8.63;7.73;;;;;;;7.11;100.00;97854.84;5113422;28;20314;-72
2022/11/29 04:55:40;;;;;;;8.73;7.90;;;;;;;7.11;100.00;97857.50;5113463;28;20282;-72
2022/11/29 04:58:16;;;;;;;8.00;7.30;;;;;;;7.16;100.00;97857.69;5113764;28;20209;-72
2022/11/29 05:01:14;;;;;;;8.63;7.47;;;;;;;7.13;100.00;97858.09;5114222;28;20315;-72
2022/11/29 05:03:49;;;;;;;9.77;7.60;;;;;;;7.12;100.00;97867.03;5113220;28;20666;-72
2022/11/29 05:06:37;;;;;;;9.53;7.77;;;;;;;7.15;100.00;97864.00;5113294;28;20187;-72
2022/11/29 05:09:17;;;;;;;8.17;7.37;;;;;;;7.17;100.00;97864.59;5113184;28;20282;-72
2022/11/29 05:12:37;;;;;;;7.77;7.03;;;;;;;7.16;100.00;97871.75;5113148;28;20706;-72
2022/11/29 05:15:25;;;;;;;8.97;6.57;;;;;;;7.23;100.00;97872.53;5050478;28;20223;-72
2022/11/29 05:18:25;;;;;;;5.73;5.23;;;;;;;7.23;100.00;97869.91;5113513;28;20191;-72
2022/11/29 05:21:14;;;;;;;7.43;6.23;;;;;;;7.21;100.00;97874.59;5113452;28;20223;-72
2022/11/29 05:24:08;;;;;;;6.63;5.70;;;;;;;7.22;100.00;97876.22;5113000;28;20576;-72
2022/11/29 05:26:46;;;;;;;7.47;6.00;;;;;;;7.21;100.00;97874.59;5113156;28;20203;-72
2022/11/29 05:29:28;;;;;;;5.97;5.37;;;;;;;7.25;100.00;97877.63;5113423;28;20187;-72
2022/11/29 05:31:59;;;;;;;6.47;5.40;;;;;;;7.25;100.00;97880.28;5112815;28;20706;-72
2022/11/29 05:34:44;;;;;;;6.33;5.70;;;;;;;7.24;100.00;97883.94;5113312;28;20214;-72
2022/11/29 05:37:22;;;;;;;6.80;5.37;;;;;;;7.24;100.00;97886.59;5112728;28;20374;-72
2022/11/29 05:40:07;;;;;;;8.37;6.33;;;;;;;7.25;100.00;97888.22;5112665;28;20213;-72
2022/11/29 05:43:05;;;;;;;7.77;6.97;;;;;;;7.23;100.00;97877.84;5112803;28;20223;-72
2022/11/29 05:45:46;;;;;;;8.67;6.67;;;;;;;7.23;100.00;97885.75;5116193;28;20306;-72
2022/11/29 05:48:23;;;;;;;6.23;5.30;;;;;;;7.28;100.00;97891.25;5116423;28;20187;-72
2022/11/29 05:51:19;;;;;;;6.50;5.67;;;;;;;7.35;100.00;97888.63;5116561;28;20593;-72
2022/11/29 05:54:24;;;;;;;5.40;4.90;;;;;;;7.27;100.00;97881.69;5116671;28;20207;-72
2022/11/29 05:57:00;;;;;;;6.03;5.03;;;;;;;7.30;100.00;97896.34;5116576;28;20191;-72
2022/11/29 05:59:28;;;;;;;5.70;5.20;;;;;;;7.27;100.00;97902.84;5116311;28;20209;-72
2022/11/29 06:02:12;;;;;;;6.77;5.10;;;;;;;7.30;100.00;97899.00;5116352;28;20227;-72
2022/11/29 06:04:57;;;;;;;5.17;4.67;;;;;;;7.32;100.00;97894.31;5116318;28;20187;-72
2022/11/29 06:08:00;;;;;;;4.73;4.33;;;;;;;7.32;100.00;97896.94;5116150;28;20195;-72
2022/11/29 06:10:35;;;;;;;5.33;4.70;;;;;;;7.27;100.00;97897.56;5115876;28;20207;-72
2022/11/29 06:13:45;;;;;;;5.10;4.40;;;;;;;7.34;100.00;97894.94;5116179;28;20214;-72
2022/11/29 06:16:23;;;;;;;5.03;4.50;;;;;;;7.43;100.00;97897.16;5116084;28;20213;-72
2022/11/29 06:19:26;;;;;;;6.60;4.90;;;;;;;7.34;100.00;97908.94;5116180;28;20187;-72
2022/11/29 06:22:20;;;;;;;5.33;4.57;;;;;;;7.33;100.00;97915.25;5115823;28;20223;-72
2022/11/29 06:25:29;;;;;;;5.57;5.07;;;;;;;7.36;100.00;97911.41;5087528;28;20205;-73
2022/11/29 06:28:16;;;;;;;5.53;4.80;;;;;;;7.38;100.00;97918.13;5115804;28;20184;-72
2022/11/29 06:31:08;;;;;;;5.37;4.83;;;;;;;7.33;100.00;97922.41;5115825;28;20223;-72
2022/11/29 06:33:52;;;;;;;4.77;4.27;;;;;;;7.37;100.00;97926.28;5115486;28;20226;-72
2022/11/29 06:36:35;;;;;;;6.00;5.00;;;;;;;7.40;100.00;97926.69;5115901;27;20562;-72
2022/11/29 06:39:02;;;;;;;6.10;5.50;;;;;;;7.34;100.00;97930.09;5115472;28;20191;-72
2022/11/29 06:41:29;;;;;;;5.87;5.37;;;;;;;7.34;100.00;97931.94;5115301;28;20259;-73
2022/11/29 06:43:55;;;;;;;7.83;5.57;;;;;;;7.35;100.00;97933.56;5115116;28;20213;-72
2022/11/29 06:46:37;;;;;;;8.87;5.70;;;;;;;7.36;100.00;97935.19;5115189;28;20199;-73
2022/11/29 06:49:14;;;;;;;8.63;6.50;;;;;;;7.35;100.00;97933.56;5115264;28;20623;-72
2022/11/29 06:51:58;;;;;;;6.37;5.80;;;;;;;7.40;100.00;97931.13;5115152;28;20233;-72
2022/11/29 06:55:00;;;;;;;7.00;6.30;;;;;;;7.39;100.00;97940.09;5114686;28;20215;-72
2022/11/29 06:57:45;;;;;;;7.97;7.17;;;;;;;7.37;100.00;97947.44;5114751;28;20191;-72
2022/11/29 07:00:31;;;;;;;8.93;6.93;;;;;;;7.42;100.00;97939.69;5114796;28;20688;-73
2022/11/29 07:03:23;;;;;;;10.37;7.60;;;;;;;7.41;100.00;97944.16;5115104;28;20705;-72
2022/11/29 07:05:50;;;;;;;8.53;7.20;;;;;;;7.38;100.00;97949.84;5115175;28;20184;-71
2022/11/29 07:08:19;;;;;;;10.37;7.63;;;;;;;7.45;100.00;97952.50;5114864;28;20674;-72
2022/11/29 07:10:48;;;;;;;9.57;7.47;;;;;;;7.43;100.00;97954.53;5114575;28;20586;-71
2022/11/29 07:13:16;;;;;;;8.00;7.30;;;;;;;7.41;100.00;97961.84;5114855;28;20359;-71
2022/11/29 07:15:54;;;;;;;9.63;8.07;;;;;;;7.43;100.00;97957.19;5114855;28;20294;-71
2022/11/29 07:18:33;;;;;;;8.40;7.60;;;;;;;7.47;100.00;97956.56;5114952;27;20183;-71
2022/11/29 07:20:59;;;;;;;9.30;8.40;;;;;;;7.41;100.00;97964.50;5114786;28;20218;-72
2022/11/29 07:23:31;;;;;;;14.83;9.17;;;;;;;7.44;100.00;97964.09;5114359;28;20211;-72
2022/11/29 07:26:41;;;;;;;10.13;8.40;;;;;;;7.48;100.00;97962.69;5111772;28;20191;-72
2022/11/29 07:29:28;;;;;;;9.17;8.20;;;;;;;7.40;100.00;97965.53;5102924;28;20208;-71
2022/11/29 07:32:08;;;;;;;11.40;7.70;;;;;;;7.40;100.00;97968.16;5101740;28;20328;-72
2022/11/29 07:34:56;;;;;;;9.83;8.70;;;;;;;7.40;100.00;97978.75;5094001;28;20218;-72
2022/11/29 07:37:51;;;;;;;12.13;8.93;;;;;;;7.42;100.00;97977.53;5093496;28;20210;-72
2022/11/29 07:40:58;;;;;;;10.07;8.80;;;;;;;7.45;100.00;97973.66;5093871;28;20271;-73
2022/11/29 07:43:45;;;;;;;7.97;7.27;;;;;;;7.44;100.00;97974.69;5094112;28;20184;-72
2022/11/29 07:46:16;;;;;;;8.53;7.73;;;;;;;7.45;100.00;97979.78;5094402;28;20603;-73
2022/11/29 07:48:42;;;;;;;9.33;7.83;;;;;;;7.48;100.00;97982.03;5094018;28;20199;-72
2022/11/29 07:51:09;;;;;;;8.80;7.80;;;;;;;7.54;100.00;97983.03;5093579;28;20224;-72
2022/11/29 07:53:41;;;;;;;6.97;6.27;;;;;;;7.48;100.00;97983.84;5093810;28;20224;-73
2022/11/29 07:56:09;;;;;;;9.53;6.70;;;;;;;7.41;100.00;97983.84;5093923;28;20194;-73
2022/11/29 07:58:36;;;;;;;8.67;7.00;;;;;;;7.42;100.00;97989.94;5093300;28;20199;-73
2022/11/29 08:01:02;;;;;;;7.20;6.57;;;;;;;7.45;100.00;97987.72;5097469;28;20342;-73
2022/11/29 08:03:29;;;;;;;7.33;6.53;;;;;;;7.48;100.00;97994.44;5113808;28;20203;-72
2022/11/29 08:05:55;;;;;;;7.27;6.67;;;;;;;7.53;100.00;97997.28;5113075;28;20662;-71
2022/11/29 08:08:22;;;;;;;7.90;7.10;;;;;;;7.49;100.00;97994.22;5114084;28;20200;-71
2022/11/29 08:10:48;;;;;;;6.93;6.30;;;;;;;7.48;100.00;97995.25;5114145;28;20219;-71
2022/11/29 08:13:14;;;;;;;7.23;6.63;;;;;;;7.44;100.00;97993.19;5113591;28;20707;-70
2022/11/29 08:15:45;;;;;;;7.87;7.07;;;;;;;7.42;100.00;97992.59;5113963;28;20670;-70
2022/11/29 08:18:12;;;;;;;7.70;6.97;;;;;;;7.50;100.00;98000.31;5113544;28;20542;-70
2022/11/29 08:20:40;;;;;;;8.33;7.53;;;;;;;7.51;100.00;97999.34;5113588;28;20685;-71
2022/11/29 08:23:07;;;;;;;7.37;6.77;;;;;;;7.42;100.00;97997.88;5113354;28;20219;-70
2022/11/29 08:25:34;;;;;;;7.93;7.13;;;;;;;7.43;100.00;98002.16;5113530;28;20563;-74
2022/11/29 08:28:02;;;;;;;8.60;7.03;;;;;;;7.45;100.00;98005.41;5113725;28;20230;-71
2022/11/29 08:30:29;;;;;;;7.87;7.07;;;;;;;7.43;100.00;98002.16;5114098;28;20600;-72
2022/11/29 08:32:55;;;;;;;7.57;6.93;;;;;;;7.44;100.00;98001.97;5113713;28;20205;-72
2022/11/29 08:35:23;;;;;;;7.73;7.00;;;;;;;7.49;100.00;98004.00;5113524;28;20697;-72
2022/11/29 08:37:50;;;;;;;7.50;6.80;;;;;;;7.42;100.00;98005.81;5113875;28;20531;-72
2022/11/29 08:40:18;;;;;;;7.93;7.13;;;;;;;7.47;100.00;98001.53;5113578;28;20211;-73
2022/11/29 08:42:44;;;;;;;7.60;6.90;;;;;;;7.51;100.00;98010.69;5113331;28;20252;-71
2022/11/29 08:45:12;;;;;;;6.40;5.90;;;;;;;7.48;100.00;98010.31;5113559;28;20298;-72
2022/11/29 08:47:41;;;;;;;8.37;6.67;;;;;;;7.46;100.00;98009.69;5114063;28;20218;-72
2022/11/29 08:50:08;;;;;;;7.20;6.50;;;;;;;7.52;100.00;98016.81;5114696;28;20260;-73
2022/11/29 08:55:23;;;;;;;6.20;5.67;;;;;;;7.43;100.00;98015.38;5114105;28;20282;-72
2022/11/29 08:57:51;;;;;;;7.63;6.47;;;;;;;7.44;100.00;98014.34;5113502;28;20199;-73
2022/11/29 09:00:20;;;;;;;6.60;6.00;;;;;;;7.44;100.00;98017.81;5113915;28;20569;-73
2022/11/29 09:02:46;;;;;;;6.87;6.27;;;;;;;7.51;100.00;98016.00;5113758;28;20199;-72
2022/11/29 09:05:13;;;;;;;6.77;6.07;;;;;;;7.46;100.00;98013.13;5113418;28;20210;-72
2022/11/29 09:07:40;;;;;;;7.33;6.60;;;;;;;7.56;100.00;98023.34;5113089;28;20250;-72
2022/11/29 09:10:10;;;;;;;7.90;6.33;;;;;;;7.52;100.00;98027.41;5113001;28;20205;-72
2022/11/29 09:12:37;;;;;;;7.43;6.37;;;;;;;7.49;100.00;98033.91;5113196;28;20207;-72
2022/11/29 09:15:06;;;;;;;7.17;5.90;;;;;;;7.57;100.00;98038.19;5113255;28;20233;-72
2022/11/29 09:17:32;;;;;;;8.97;6.93;;;;;;;7.53;100.00;98029.84;5114665;28;20203;-72
2022/11/29 09:19:59;;;;;;;8.50;6.07;;;;;;;7.59;100.00;98036.16;5117302;28;20203;-72
2022/11/29 09:22:25;;;;;;;6.83;6.10;;;;;;;7.53;100.00;98035.16;5116912;28;20313;-71
2022/11/29 09:24:56;;;;;;;7.77;7.07;;;;;;;7.68;100.00;98037.59;5116959;28;20184;-71
2022/11/29 09:27:22;;;;;;;9.47;7.70;;;;;;;7.74;100.00;98034.97;5104390;28;20208;-71
2022/11/29 09:29:48;;;;;;;10.17;7.80;;;;;;;7.63;100.00;98043.50;5114435;28;20309;-72
2022/11/29 09:32:15;;;;;;;10.07;8.30;;;;;;;7.56;100.00;98044.50;5103425;28;20698;-72
2022/11/29 09:34:41;;;;;;;9.60;8.40;;;;;;;7.55;100.00;98042.88;5096550;28;20578;-71
2022/11/29 09:37:08;;;;;;;9.70;8.70;;;;;;;7.53;100.00;98042.25;5096664;28;20243;-71
2022/11/29 09:39:34;;;;;;;11.47;9.37;;;;;;;7.49;100.00;98046.31;5096633;28;20218;-71
2022/11/29 09:42:22;;;;;;;11.10;9.13;;;;;;;7.52;100.00;98045.91;5095898;28;20586;-71
2022/11/29 09:45:03;;;;;;;11.07;8.70;;;;;;;7.54;100.00;98054.47;5096472;28;20208;-70
2022/11/29 09:47:46;;;;;;;11.70;9.37;;;;;;;7.55;100.00;98056.13;5096089;28;20204;-71
2022/11/29 09:50:22;;;;;;;13.63;10.27;;;;;;;7.53;100.00;98052.84;5096169;28;20657;-70
2022/11/29 09:53:27;;;;;;;15.37;11.47;;;;;;;7.42;100.00;98059.50;5096460;28;20274;-70
2022/11/29 09:56:15;;;;;;;18.93;13.83;;;;;;;7.55;100.00;98056.13;5053650;28;20204;-70
2022/11/29 09:58:55;;;;;;;27.07;14.93;;;;;;;7.59;100.00;98049.38;5053730;28;20193;-70
2022/11/29 10:01:26;;;;;;;20.93;13.40;;;;;;;7.58;100.00;98055.69;5083574;28;20603;-70
2022/11/29 10:03:56;;;;;;;22.90;15.50;;;;;;;7.41;100.00;98054.41;5096521;28;20283;-74
2022/11/29 10:06:37;;;;;;;24.67;17.40;;;;;;;7.55;100.00;98054.25;5096298;28;20256;-73
2022/11/29 10:09:12;;;;;;;23.03;15.83;;;;;;;7.61;100.00;98057.94;5096164;28;20556;-71
2022/11/29 10:12:12;;;;;;;18.07;15.53;;;;;;;7.53;100.00;98063.41;5096012;28;20229;-70
2022/11/29 10:15:02;;;;;;;21.93;16.57;;;;;;;7.52;100.00;98067.09;5095597;28;20298;-70
2022/11/29 10:17:48;;;;;;;21.00;16.77;;;;;;;7.61;100.00;98063.25;5096059;28;20188;-70
2022/11/29 10:20:19;;;;;;;22.37;15.73;;;;;;;7.64;100.00;98068.16;5095651;28;20196;-71
2022/11/29 10:22:54;;;;;;;16.83;13.77;;;;;;;7.55;100.00;98066.69;5095785;28;20307;-71
2022/11/29 10:25:47;;;;;;;18.20;13.77;;;;;;;7.50;100.00;98072.56;5096056;28;20191;-71
2022/11/29 10:28:20;;;;;;;20.97;14.60;;;;;;;7.59;100.00;98066.09;5095430;28;20204;-70
2022/11/29 10:30:48;;;;;;;17.47;13.30;;;;;;;7.48;100.00;98060.56;5097343;28;20574;-70
2022/11/29 10:33:24;;;;;;;15.70;12.43;;;;;;;7.57;100.00;98064.66;5105968;28;20200;-73
2022/11/29 10:35:55;;;;;;;15.53;12.97;;;;;;;7.61;100.00;98066.69;5095272;28;20215;-70
2022/11/29 10:38:23;;;;;;;16.53;14.07;;;;;;;7.64;100.00;98060.22;5095507;28;20188;-71
2022/11/29 10:40:54;;;;;;;12.90;10.27;;;;;;;7.64;100.00;98055.72;5095475;28;20262;-71
2022/11/29 10:43:20;;;;;;;15.73;11.57;;;;;;;7.56;100.00;98055.88;5095492;28;20195;-70
2022/11/29 10:45:54;;;;;;;12.23;10.33;;;;;;;7.61;100.00;98064.03;5095585;28;20202;-70
2022/11/29 10:48:24;;;;;;;13.20;9.87;;;;;;;7.49;100.00;98056.88;5095553;28;20242;-70
2022/11/29 10:50:52;;;;;;;12.80;9.83;;;;;;;7.49;100.00;98070.94;5094904;28;20729;-70
2022/11/29 10:53:24;;;;;;;15.03;11.00;;;;;;;7.49;100.00;98060.34;5096737;28;20204;-70
2022/11/29 10:55:58;;;;;;;15.07;11.30;;;;;;;7.52;100.00;98062.59;5115052;28;20212;-70
2022/11/29 10:58:30;;;;;;;13.97;10.47;;;;;;;7.41;100.00;98072.94;5115696;28;20191;-72
2022/11/29 11:01:05;;;;;;;18.63;11.60;;;;;;;7.50;100.00;98069.09;5115220;28;20724;-73
2022/11/29 11:03:40;;;;;;;16.23;12.50;;;;;;;7.45;100.00;98064.41;5115590;27;20191;-70
2022/11/29 11:06:09;;;;;;;15.10;11.97;;;;;;;7.36;100.00;98065.59;5114959;28;20186;-70
2022/11/29 11:08:38;;;;;;;17.90;12.67;;;;;;;7.43;100.00;98071.72;5114583;28;20621;-72
2022/11/29 11:11:07;;;;;;;19.30;13.00;;;;;;;7.32;100.00;98069.66;5113433;28;20230;-71
2022/11/29 11:13:35;;;;;;;14.10;12.43;;;;;;;7.46;100.00;98075.81;5115047;28;20556;-71
2022/11/29 11:16:11;;;;;;;15.73;12.77;;;;;;;7.37;100.00;98069.88;5115047;27;20230;-72
2022/11/29 11:18:38;;;;;;;15.30;12.73;;;;;;;7.43;100.00;98071.72;5115133;28;20210;-73
2022/11/29 11:21:10;;;;;;;15.13;12.07;;;;;;;7.37;100.00;98059.28;5114817;28;20233;-72
2022/11/29 11:23:42;;;;;;;15.90;12.37;;;;;;;7.57;100.00;98054.06;5115012;28;20215;-73
2022/11/29 11:26:12;;;;;;;13.93;11.57;;;;;;;7.37;100.00;98067.22;5115009;28;20192;-70
2022/11/29 11:28:53;;;;;;;15.70;12.97;;;;;;;7.48;100.00;98066.66;5114724;28;20203;-72
2022/11/29 11:31:52;;;;;;;17.30;13.17;;;;;;;7.55;100.00;98064.84;5115231;28;20223;-72
2022/11/29 11:34:18;;;;;;;14.13;11.57;;;;;;;7.40;100.00;98068.66;5114451;28;20229;-72
2022/11/29 11:36:44;;;;;;;13.60;12.17;;;;;;;7.40;100.00;98058.09;5114626;28;20199;-72
2022/11/29 11:39:21;;;;;;;14.90;13.00;;;;;;;7.54;100.00;98076.44;5114437;28;20210;-72
2022/11/29 11:44:38;;;;;;;15.07;13.47;;;;;;;7.47;100.00;98078.25;5114934;28;20171;-72
2022/11/29 11:47:15;;;;;;;16.43;12.93;;;;;;;7.49;100.00;98072.75;5113478;28;20203;-72
2022/11/29 11:49:56;;;;;;;14.03;12.53;;;;;;;7.42;100.00;98078.03;5114278;28;20630;-72
2022/11/29 11:52:27;;;;;;;11.87;10.67;;;;;;;7.42;100.00;98080.66;5114419;28;20219;-72
2022/11/29 11:54:57;;;;;;;13.00;10.60;;;;;;;7.36;100.00;98078.00;5114215;28;20246;-72
2022/11/29 11:57:25;;;;;;;10.47;9.40;;;;;;;7.41;100.00;98079.03;5113994;28;20207;-72
2022/11/29 11:59:54;;;;;;;11.47;10.33;;;;;;;7.34;100.00;98087.97;5109417;28;20195;-72
2022/11/29 12:02:28;;;;;;;11.57;10.37;;;;;;;7.33;100.00;98089.00;5093680;28;20307;-72
2022/11/29 12:05:00;;;;;;;11.43;10.33;;;;;;;7.37;100.00;98088.38;5093637;28;20578;-72
2022/11/29 12:07:41;;;;;;;10.47;9.53;;;;;;;7.44;100.00;98093.69;5093961;28;20223;-73
2022/11/29 12:10:19;;;;;;;8.80;8.00;;;;;;;7.50;100.00;98092.91;5095227;28;20193;-73
2022/11/29 12:12:47;;;;;;;12.50;9.07;;;;;;;7.52;100.00;98093.53;5094180;28;20536;-73
2022/11/29 12:15:25;;;;;;;8.53;7.73;;;;;;;7.37;100.00;98096.31;5093574;28;20234;-72